createdAt,value
2023-04-25T00:00:56.843Z,17.50
2023-04-25T00:03:26.493Z,12.80
2023-04-25T00:05:53.944Z,13.90
2023-04-25T00:08:21.506Z,13.40
2023-04-25T00:10:50.024Z,13.30
2023-04-25T00:13:18.630Z,14.90
2023-04-25T00:15:47.507Z,13.50
2023-04-25T00:18:14.639Z,12.80
2023-04-25T00:20:41.664Z,13.50
2023-04-25T00:23:09.038Z,15.70
2023-04-25T00:25:36.091Z,12.70
2023-04-25T00:28:03.189Z,10.80
2023-04-25T00:30:30.181Z,11.30
2023-04-25T00:32:57.262Z,13.50
2023-04-25T00:35:24.354Z,14.10
2023-04-25T00:37:51.653Z,11.80
2023-04-25T00:40:18.695Z,12.70
2023-04-25T00:42:45.882Z,12.30
2023-04-25T00:45:15.019Z,12.20
2023-04-25T00:47:42.869Z,13.10
2023-04-25T00:50:10.156Z,10.70
2023-04-25T00:52:39.247Z,12.50
2023-04-25T00:55:06.578Z,10.90
2023-04-25T00:57:33.639Z,11.80
2023-04-25T01:00:00.719Z,11.00
2023-04-25T01:02:28.931Z,11.80
2023-04-25T01:04:57.270Z,11.60
2023-04-25T01:07:24.408Z,11.50
2023-04-25T01:09:52.703Z,10.90
2023-04-25T01:12:19.760Z,11.20
2023-04-25T01:14:47.101Z,12.50
2023-04-25T01:17:14.284Z,14.40
2023-04-25T01:19:41.366Z,13.40
2023-04-25T01:22:08.444Z,11.60
2023-04-25T01:24:36.628Z,12.10
2023-04-25T01:27:03.865Z,13.10
2023-04-25T01:29:31.415Z,11.90
2023-04-25T01:31:59.818Z,10.60
2023-04-25T01:34:26.920Z,10.10
2023-04-25T01:36:54.313Z,10.80
2023-04-25T01:39:21.666Z,10.80
2023-04-25T01:41:48.868Z,12.60
2023-04-25T01:44:16.581Z,11.00
2023-04-25T01:46:43.667Z,12.90
2023-04-25T01:49:11.899Z,11.30
2023-04-25T01:51:39.524Z,9.70
2023-04-25T01:54:06.695Z,10.40
2023-04-25T01:56:34.482Z,11.30
2023-04-25T01:59:01.855Z,14.80
2023-04-25T02:01:46.170Z,9.80
2023-04-25T02:04:20.960Z,12.10
2023-04-25T02:06:48.439Z,8.90
2023-04-25T02:09:16.608Z,12.00
2023-04-25T02:11:48.335Z,10.20
2023-04-25T02:14:27.489Z,10.10
2023-04-25T02:17:08.376Z,11.50
2023-04-25T02:19:35.627Z,12.20
2023-04-25T02:22:02.659Z,9.70
2023-04-25T02:24:29.690Z,14.10
2023-04-25T02:26:57.424Z,9.90
2023-04-25T02:29:24.543Z,9.00
2023-04-25T02:31:51.672Z,10.40
2023-04-25T02:34:18.734Z,9.50
2023-04-25T02:36:46.120Z,10.60
2023-04-25T02:39:13.215Z,12.70
2023-04-25T02:41:40.300Z,10.60
2023-04-25T02:44:07.392Z,9.90
2023-04-25T02:46:39.473Z,9.40
2023-04-25T02:49:07.860Z,11.60
2023-04-25T02:51:35.412Z,10.20
2023-04-25T02:54:02.473Z,13.30
2023-04-25T02:56:29.879Z,11.70
2023-04-25T02:58:57.641Z,14.10
2023-04-25T03:01:24.854Z,11.50
2023-04-25T03:03:52.268Z,12.50
2023-04-25T03:06:19.800Z,14.20
2023-04-25T03:08:46.771Z,12.60
2023-04-25T03:11:13.768Z,10.70
2023-04-25T03:13:42.458Z,13.80
2023-04-25T03:16:09.847Z,12.20
2023-04-25T03:18:36.866Z,10.20
2023-04-25T03:21:03.961Z,12.60
2023-04-25T03:23:31.701Z,13.00
2023-04-25T03:25:58.838Z,12.10
2023-04-25T03:28:26.613Z,14.30
2023-04-25T03:30:55.398Z,13.70
2023-04-25T03:33:23.005Z,15.30
2023-04-25T03:35:51.283Z,15.10
2023-04-25T03:38:18.748Z,12.80
2023-04-25T03:40:45.995Z,13.40
2023-04-25T03:43:34.866Z,12.80
2023-04-25T03:46:05.290Z,14.30
2023-04-25T03:48:32.372Z,17.30
2023-04-25T03:50:59.427Z,14.70
2023-04-25T03:53:26.638Z,13.40
2023-04-25T03:56:13.882Z,12.20
2023-04-25T03:58:41.413Z,13.00
2023-04-25T04:01:08.991Z,14.60
2023-04-25T04:03:37.661Z,14.30
2023-04-25T04:06:06.796Z,12.10
2023-04-25T04:08:37.278Z,16.60
2023-04-25T04:11:04.520Z,12.40
2023-04-25T04:13:32.608Z,15.00
2023-04-25T04:16:00.339Z,12.70
2023-04-25T04:18:27.501Z,19.30
2023-04-25T04:20:57.022Z,17.00
2023-04-25T04:23:24.436Z,15.30
2023-04-25T04:25:51.983Z,16.30
2023-04-25T04:28:19.042Z,13.80
2023-04-25T04:30:58.955Z,16.70
2023-04-25T04:33:26.883Z,13.20
2023-04-25T04:36:00.288Z,14.70
2023-04-25T04:38:28.383Z,14.70
2023-04-25T04:40:58.322Z,14.40
2023-04-25T04:43:34.629Z,14.50
2023-04-25T04:46:29.328Z,18.20
2023-04-25T04:49:15.095Z,14.80
2023-04-25T04:51:48.353Z,12.30
2023-04-25T04:54:36.851Z,13.00
2023-04-25T04:57:34.288Z,15.10
2023-04-25T05:00:37.066Z,17.00
2023-04-25T05:03:33.354Z,14.80
2023-04-25T05:06:03.581Z,14.20
2023-04-25T05:08:45.244Z,16.40
2023-04-25T05:11:35.369Z,17.80
2023-04-25T05:14:21.305Z,17.70
2023-04-25T05:17:09.678Z,16.50
2023-04-25T05:19:58.788Z,15.90
2023-04-25T05:22:35.824Z,15.60
2023-04-25T05:25:35.560Z,17.40
2023-04-25T05:28:14.385Z,20.40
2023-04-25T05:31:01.309Z,16.70
2023-04-25T05:33:39.793Z,19.60
2023-04-25T05:36:07.817Z,25.80
2023-04-25T05:38:35.095Z,28.00
2023-04-25T05:41:22.600Z,25.90
2023-04-25T05:43:57.965Z,33.60
2023-04-25T05:46:30.373Z,35.60
2023-04-25T05:49:12.013Z,34.00
2023-04-25T05:52:08.305Z,48.30
2023-04-25T05:54:44.542Z,54.80
2023-04-25T05:57:28.619Z,58.40
2023-04-25T05:59:57.134Z,63.10
2023-04-25T06:05:09.741Z,77.10
2023-04-25T06:07:37.132Z,70.10
2023-04-25T06:10:07.547Z,76.60
2023-04-25T06:12:34.715Z,74.80
2023-04-25T06:15:02.253Z,66.30
2023-04-25T06:17:31.809Z,68.50
2023-04-25T06:19:59.349Z,65.20
2023-04-25T06:22:26.378Z,67.70
2023-04-25T06:24:53.629Z,96.90
2023-04-25T06:27:20.786Z,116.70
2023-04-25T06:29:47.890Z,113.50
2023-04-25T06:32:15.406Z,98.60
2023-04-25T06:34:42.398Z,87.90
2023-04-25T06:37:09.581Z,71.90
2023-04-25T06:39:37.647Z,47.40
2023-04-25T06:42:06.424Z,52.10
2023-04-25T06:44:48.670Z,47.00
2023-04-25T06:47:16.108Z,47.80
2023-04-25T06:49:43.236Z,44.60
2023-04-25T06:52:11.933Z,40.80
2023-04-25T06:54:39.368Z,39.00
2023-04-25T06:57:25.460Z,43.50
2023-04-25T06:59:52.723Z,63.50
2023-04-25T07:02:19.994Z,60.00
2023-04-25T07:04:47.528Z,51.80
2023-04-25T07:07:15.265Z,39.00
2023-04-25T07:09:46.927Z,26.20
2023-04-25T07:12:13.916Z,23.30
2023-04-25T07:14:40.990Z,22.00
2023-04-25T07:17:08.531Z,31.00
2023-04-25T07:19:35.980Z,23.70
2023-04-25T07:22:03.423Z,25.70
2023-04-25T07:24:30.572Z,21.70
2023-04-25T07:26:57.760Z,19.30
2023-04-25T07:29:32.235Z,23.00
2023-04-25T07:32:00.276Z,24.50
2023-04-25T07:34:27.410Z,24.90
2023-04-25T07:36:55.071Z,24.90
2023-04-25T07:39:24.430Z,25.30
2023-04-25T07:41:54.501Z,26.00
2023-04-25T07:46:51.719Z,18.00
2023-04-25T07:49:18.831Z,18.10
2023-04-25T07:51:46.018Z,15.40
2023-04-25T07:54:15.819Z,11.10
2023-04-25T07:56:52.509Z,8.60
2023-04-25T07:59:21.459Z,8.50
2023-04-25T08:01:48.740Z,6.40
2023-04-25T08:04:16.540Z,8.40
2023-04-25T08:06:55.039Z,7.60
2023-04-25T08:09:26.245Z,6.20
2023-04-25T08:11:53.609Z,6.80
2023-04-25T08:14:24.611Z,6.90
2023-04-25T08:16:52.201Z,7.00
2023-04-25T08:19:20.395Z,9.10
2023-04-25T08:21:47.588Z,7.60
2023-04-25T08:24:17.692Z,7.30
2023-04-25T08:26:45.512Z,7.90
2023-04-25T08:29:16.075Z,6.20
2023-04-25T08:31:43.701Z,8.90
2023-04-25T08:37:12.143Z,7.90
2023-04-25T08:39:54.896Z,5.70
2023-04-25T08:42:43.959Z,6.40
2023-04-25T08:45:11.656Z,6.30
2023-04-25T08:47:40.925Z,6.10
2023-04-25T08:50:08.626Z,6.60
2023-04-25T08:52:44.656Z,5.50
2023-04-25T08:55:13.204Z,5.70
2023-04-25T08:57:44.016Z,6.80
2023-04-25T09:00:13.600Z,7.70
2023-04-25T09:02:42.603Z,6.30
2023-04-25T09:05:11.172Z,6.20
2023-04-25T09:07:38.303Z,4.80
2023-04-25T09:10:06.181Z,7.80
2023-04-25T09:12:36.496Z,7.20
2023-04-25T09:15:08.389Z,5.40
2023-04-25T09:17:59.247Z,6.10
2023-04-25T09:20:31.822Z,5.50
2023-04-25T09:23:03.808Z,6.40
2023-04-25T09:25:41.388Z,6.00
2023-04-25T09:28:09.901Z,7.60
2023-04-25T09:30:37.586Z,5.90
2023-04-25T09:33:14.084Z,6.50
2023-04-25T09:35:46.433Z,6.20
2023-04-25T09:38:22.870Z,9.00
2023-04-25T09:40:57.855Z,5.90
2023-04-25T09:43:33.214Z,6.70
2023-04-25T09:46:01.657Z,8.10
2023-04-25T09:48:29.921Z,6.10
2023-04-25T09:51:12.487Z,6.70
2023-04-25T09:53:44.290Z,5.40
2023-04-25T09:56:19.265Z,5.20
2023-04-25T09:58:46.410Z,7.90
2023-04-25T10:01:14.355Z,6.30
2023-04-25T10:03:48.856Z,5.00
2023-04-25T10:06:35.953Z,5.60
2023-04-25T10:09:04.970Z,4.90
2023-04-25T10:11:32.028Z,5.30
2023-04-25T10:13:59.039Z,6.60
2023-04-25T10:16:26.352Z,5.00
2023-04-25T10:18:53.584Z,6.50
2023-04-25T10:21:21.352Z,7.50
2023-04-25T10:23:48.572Z,8.70
2023-04-25T10:26:16.062Z,11.30
2023-04-25T10:28:59.850Z,8.20
2023-04-25T10:31:27.159Z,7.20
2023-04-25T10:33:54.768Z,10.20
2023-04-25T10:36:23.785Z,13.10
2023-04-25T10:38:52.065Z,10.40
2023-04-25T10:41:20.277Z,9.40
2023-04-25T10:43:48.036Z,8.80
2023-04-25T10:46:35.103Z,9.80
2023-04-25T10:49:03.107Z,9.10
2023-04-25T10:51:47.329Z,10.10
2023-04-25T10:54:21.415Z,11.10
2023-04-25T10:56:49.764Z,9.60
2023-04-25T10:59:18.353Z,10.10
2023-04-25T11:01:46.132Z,9.10
2023-04-25T11:04:40.071Z,8.10
2023-04-25T11:07:36.393Z,14.60
2023-04-25T11:10:05.449Z,7.40
2023-04-25T11:12:33.096Z,7.50
2023-04-25T11:15:02.515Z,8.60
2023-04-25T11:17:29.867Z,8.10
2023-04-25T11:19:57.643Z,11.70
2023-04-25T11:22:24.769Z,9.00
2023-04-25T11:24:52.358Z,9.70
2023-04-25T11:27:19.508Z,10.00
2023-04-25T11:29:49.241Z,8.60
2023-04-25T11:32:17.830Z,10.00
2023-04-25T11:34:46.668Z,7.00
2023-04-25T11:37:14.019Z,8.20
2023-04-25T11:39:46.536Z,7.50
2023-04-25T11:42:14.100Z,7.80
2023-04-25T11:44:41.902Z,7.60
2023-04-25T11:47:08.954Z,5.60
2023-04-25T11:49:37.051Z,6.20
2023-04-25T11:52:04.338Z,9.30
2023-04-25T11:54:31.531Z,8.60
2023-04-25T11:56:58.529Z,7.50
2023-04-25T11:59:26.598Z,5.70
2023-04-25T12:01:53.891Z,7.50
2023-04-25T12:04:24.991Z,6.10
2023-04-25T12:06:56.269Z,4.40
2023-04-25T12:09:31.696Z,6.00
2023-04-25T12:12:00.050Z,7.20
2023-04-25T12:14:30.540Z,6.40
2023-04-25T12:16:59.373Z,8.10
2023-04-25T12:19:27.117Z,7.10
2023-04-25T12:21:58.611Z,4.70
2023-04-25T12:24:28.737Z,6.50
2023-04-25T12:27:11.514Z,6.80
2023-04-25T12:29:49.307Z,7.30
2023-04-25T12:32:18.247Z,6.60
2023-04-25T12:34:46.187Z,4.60
2023-04-25T12:37:13.404Z,4.90
2023-04-25T12:39:40.878Z,4.80
2023-04-25T12:42:10.009Z,5.00
2023-04-25T12:44:37.587Z,3.70
2023-04-25T12:47:04.845Z,4.20
2023-04-25T12:49:32.098Z,7.40
2023-04-25T12:51:59.335Z,5.10
2023-04-25T12:54:27.068Z,4.90
2023-04-25T12:56:54.190Z,4.80
2023-04-25T12:59:22.484Z,4.70
2023-04-25T13:01:49.593Z,3.90
2023-04-25T13:04:17.402Z,4.80
2023-04-25T13:06:44.807Z,5.70
2023-04-25T13:09:13.847Z,3.40
2023-04-25T13:11:42.559Z,4.70
2023-04-25T13:14:09.652Z,4.70
2023-04-25T13:16:36.864Z,5.20
2023-04-25T13:19:03.885Z,5.30
2023-04-25T13:21:34.031Z,4.20
2023-04-25T13:24:01.206Z,4.10
2023-04-25T13:26:28.276Z,5.40
2023-04-25T13:28:55.382Z,4.40
2023-04-25T13:31:22.474Z,5.20
2023-04-25T13:33:50.134Z,3.90
2023-04-25T13:36:17.486Z,4.70
2023-04-25T13:38:46.176Z,4.10
2023-04-25T13:41:18.991Z,4.20
2023-04-25T13:43:49.151Z,4.30
2023-04-25T13:46:35.437Z,4.40
2023-04-25T13:49:12.924Z,3.90
2023-04-25T13:51:41.712Z,5.50
2023-04-25T13:54:08.918Z,7.10
2023-04-25T13:56:36.260Z,4.20
2023-04-25T13:59:03.248Z,4.30
2023-04-25T14:01:32.290Z,5.10
2023-04-25T14:03:59.630Z,3.90
2023-04-25T14:06:27.102Z,5.10
2023-04-25T14:08:55.045Z,4.50
2023-04-25T14:11:22.254Z,4.40
2023-04-25T14:13:50.617Z,4.10
2023-04-25T14:16:18.232Z,5.30
2023-04-25T14:18:45.451Z,4.20
2023-04-25T14:21:12.542Z,4.80
2023-04-25T14:23:39.623Z,4.90
2023-04-25T14:26:06.845Z,3.90
2023-04-25T14:28:33.920Z,3.90
2023-04-25T14:31:02.019Z,4.20
2023-04-25T14:33:29.034Z,4.70
2023-04-25T14:35:56.265Z,4.60
2023-04-25T14:38:24.624Z,4.30
2023-04-25T14:40:52.128Z,4.40
2023-04-25T14:43:19.092Z,4.90
2023-04-25T14:45:46.285Z,4.60
2023-04-25T14:48:13.525Z,3.60
2023-04-25T14:50:40.736Z,4.40
2023-04-25T14:53:08.046Z,8.30
2023-04-25T14:55:35.032Z,5.80
2023-04-25T14:58:02.281Z,5.30
2023-04-25T15:00:29.457Z,4.30
2023-04-25T15:02:57.227Z,4.60
2023-04-25T15:05:24.566Z,4.70
2023-04-25T15:07:51.970Z,5.90
2023-04-25T15:10:19.542Z,6.90
2023-04-25T15:12:47.887Z,5.20
2023-04-25T15:15:22.759Z,4.90
2023-04-25T15:17:56.486Z,6.50
2023-04-25T15:20:25.735Z,4.80
2023-04-25T15:22:52.728Z,5.60
2023-04-25T15:25:19.755Z,4.90
2023-04-25T15:27:49.594Z,6.30
2023-04-25T15:30:17.810Z,5.70
2023-04-25T15:32:48.651Z,8.50
2023-04-25T15:35:16.487Z,7.00
2023-04-25T15:37:43.636Z,4.70
2023-04-25T15:40:16.839Z,4.40
2023-04-25T15:42:48.114Z,6.00
2023-04-25T15:45:15.801Z,5.40
2023-04-25T15:47:43.240Z,5.20
2023-04-25T15:50:11.697Z,5.90
2023-04-25T15:52:39.027Z,6.10
2023-04-25T15:55:06.608Z,4.30
2023-04-25T15:57:34.333Z,5.40
2023-04-25T16:00:02.387Z,4.50
2023-04-25T16:02:39.738Z,12.70
2023-04-25T16:05:07.464Z,8.40
2023-04-25T16:07:35.166Z,7.60
2023-04-25T16:10:02.213Z,9.10
2023-04-25T16:12:31.240Z,8.10
2023-04-25T16:14:58.434Z,8.00
2023-04-25T16:17:26.007Z,7.00
2023-04-25T16:19:53.527Z,8.50
2023-04-25T16:22:21.062Z,10.80
2023-04-25T16:24:48.103Z,6.60
2023-04-25T16:27:15.255Z,6.90
2023-04-25T16:29:42.671Z,6.40
2023-04-25T16:32:09.655Z,7.40
2023-04-25T16:34:36.677Z,5.50
2023-04-25T16:37:03.712Z,6.30
2023-04-25T16:39:30.837Z,9.20
2023-04-25T16:41:57.881Z,8.20
2023-04-25T16:44:24.934Z,6.50
2023-04-25T16:46:52.661Z,5.40
2023-04-25T16:49:19.772Z,6.10
2023-04-25T16:51:47.377Z,6.80
2023-04-25T16:54:14.366Z,6.40
2023-04-25T16:56:42.031Z,6.50
2023-04-25T16:59:09.096Z,6.70
2023-04-25T17:01:36.947Z,11.00
2023-04-25T17:04:04.074Z,7.20
2023-04-25T17:06:31.343Z,10.00
2023-04-25T17:08:58.407Z,8.10
2023-04-25T17:11:25.668Z,6.70
2023-04-25T17:13:52.717Z,6.30
2023-04-25T17:16:23.283Z,7.90
2023-04-25T17:18:53.631Z,8.20
2023-04-25T17:21:20.973Z,6.80
2023-04-25T17:23:48.042Z,6.00
2023-04-25T17:26:15.227Z,10.20
2023-04-25T17:28:45.359Z,9.00
2023-04-25T17:31:12.801Z,6.70
2023-04-25T17:33:39.908Z,6.30
2023-04-25T17:36:07.407Z,8.50
2023-04-25T17:38:35.903Z,7.30
2023-04-25T17:41:02.891Z,7.40
2023-04-25T17:43:30.068Z,6.10
2023-04-25T17:45:57.163Z,7.70
2023-04-25T17:48:25.174Z,6.20
2023-04-25T17:50:52.283Z,7.50
2023-04-25T17:53:19.355Z,9.20
2023-04-25T17:55:46.380Z,11.20
2023-04-25T17:58:13.360Z,8.70
2023-04-25T18:00:40.612Z,8.90
2023-04-25T18:03:07.849Z,8.80
2023-04-25T18:05:35.099Z,9.10
2023-04-25T18:08:02.187Z,10.90
2023-04-25T18:10:29.197Z,7.30
2023-04-25T18:12:56.215Z,11.50
2023-04-25T18:15:23.336Z,9.30
2023-04-25T18:17:50.495Z,9.20
2023-04-25T18:20:17.588Z,7.40
2023-04-25T18:22:45.707Z,9.00
2023-04-25T18:25:14.568Z,8.50
2023-04-25T18:27:41.818Z,7.90
2023-04-25T18:30:11.092Z,7.50
2023-04-25T18:32:38.516Z,14.30
2023-04-25T18:35:06.218Z,8.20
2023-04-25T18:37:33.615Z,9.50
2023-04-25T18:40:06.350Z,9.90
2023-04-25T18:42:35.096Z,10.90
2023-04-25T18:45:02.047Z,8.80
2023-04-25T18:47:29.280Z,9.60
2023-04-25T18:49:56.345Z,8.40
2023-04-25T18:52:23.400Z,10.50
2023-04-25T18:54:50.698Z,12.60
2023-04-25T18:57:18.197Z,10.60
2023-04-25T18:59:46.412Z,14.60
2023-04-25T19:02:16.261Z,18.80
2023-04-25T19:04:44.001Z,14.70
2023-04-25T19:07:11.531Z,11.80
2023-04-25T19:09:38.562Z,13.10
2023-04-25T19:12:05.819Z,12.50
2023-04-25T19:14:33.670Z,16.80
2023-04-25T19:17:01.092Z,17.70
2023-04-25T19:19:28.322Z,14.30
2023-04-25T19:21:55.421Z,16.80
2023-04-25T19:24:22.888Z,16.20
2023-04-25T19:26:49.924Z,18.50
2023-04-25T19:29:17.371Z,11.50
2023-04-25T19:31:44.886Z,12.10
2023-04-25T19:34:13.180Z,12.40
2023-04-25T19:36:41.638Z,14.00
2023-04-25T19:39:08.814Z,10.00
2023-04-25T19:41:37.279Z,10.80
2023-04-25T19:44:06.332Z,9.60
2023-04-25T19:46:33.796Z,9.30
2023-04-25T19:49:01.655Z,9.80
2023-04-25T19:51:28.858Z,8.00
2023-04-25T19:53:56.020Z,11.30
2023-04-25T19:56:23.743Z,10.20
2023-04-25T19:58:51.651Z,8.30
2023-04-25T20:01:22.368Z,8.10
2023-04-25T20:03:52.221Z,6.90
2023-04-25T20:06:19.731Z,6.10
2023-04-25T20:08:47.548Z,9.60
2023-04-25T20:11:15.211Z,5.90
2023-04-25T20:13:42.237Z,7.40
2023-04-25T20:16:09.317Z,5.50
2023-04-25T20:18:36.371Z,6.70
2023-04-25T20:21:03.445Z,5.90
2023-04-25T20:23:30.518Z,8.50
2023-04-25T20:25:57.626Z,6.70
2023-04-25T20:28:24.753Z,6.30
2023-04-25T20:30:51.810Z,7.40
2023-04-25T20:33:18.912Z,6.50
2023-04-25T20:35:46.790Z,8.30
2023-04-25T20:38:14.190Z,7.60
2023-04-25T20:40:41.471Z,8.30
2023-04-25T20:43:11.317Z,6.90
2023-04-25T20:45:39.874Z,7.80
2023-04-25T20:48:07.066Z,8.50
2023-04-25T20:50:34.290Z,7.50
2023-04-25T20:54:52.320Z,10.20
2023-04-25T20:57:19.422Z,6.50
2023-04-25T20:59:48.273Z,8.00
2023-04-25T21:02:16.099Z,8.60
2023-04-25T21:04:46.689Z,6.50
2023-04-25T21:07:13.919Z,6.30
2023-04-25T21:09:42.764Z,8.50
2023-04-25T21:12:09.822Z,5.50
2023-04-25T21:14:36.799Z,5.70
2023-04-25T21:17:04.548Z,6.20
2023-04-25T21:19:31.880Z,8.70
2023-04-25T21:21:58.957Z,6.40
2023-04-25T21:24:27.496Z,7.30
2023-04-25T21:26:54.645Z,8.10
2023-04-25T21:29:21.640Z,9.00
2023-04-25T21:31:49.117Z,6.20
2023-04-25T21:34:16.153Z,6.20
2023-04-25T21:36:44.473Z,6.80
2023-04-25T21:39:11.657Z,7.30
2023-04-25T21:41:38.730Z,6.90
2023-04-25T21:44:06.724Z,6.50
2023-04-25T21:46:34.235Z,6.80
2023-04-25T21:49:01.284Z,10.10
2023-04-25T21:51:29.281Z,7.40
2023-04-25T21:53:56.542Z,7.20
2023-04-25T21:56:23.587Z,7.50
2023-04-25T21:58:50.958Z,7.10
2023-04-25T22:01:18.387Z,7.90
2023-04-25T22:03:45.637Z,7.00
2023-04-25T22:06:12.926Z,7.10
2023-04-25T22:08:39.984Z,7.20
2023-04-25T22:11:08.422Z,6.50
2023-04-25T22:13:36.157Z,6.50
2023-04-25T22:16:03.374Z,8.20
2023-04-25T22:18:30.670Z,6.90
2023-04-25T22:20:57.663Z,7.20
2023-04-25T22:23:25.732Z,7.40
2023-04-25T22:25:52.937Z,7.50
2023-04-25T22:28:20.692Z,6.10
2023-04-25T22:30:47.747Z,6.40
2023-04-25T22:33:14.930Z,7.30
2023-04-25T22:35:42.453Z,8.10
2023-04-25T22:38:09.817Z,8.60
2023-04-25T22:40:37.025Z,8.80
2023-04-25T22:43:04.084Z,5.40
2023-04-25T22:45:31.580Z,7.90
2023-04-25T22:47:58.856Z,5.50
2023-04-25T22:50:27.297Z,6.20
2023-04-25T22:52:55.362Z,11.30
2023-04-25T22:55:22.877Z,6.40
2023-04-25T22:57:49.942Z,7.60
2023-04-25T23:00:20.151Z,7.30
2023-04-25T23:02:48.203Z,8.60
2023-04-25T23:05:15.730Z,7.60
2023-04-25T23:07:43.915Z,7.20
2023-04-25T23:10:11.251Z,11.30
2023-04-25T23:12:39.000Z,7.70
2023-04-25T23:15:07.453Z,8.20
2023-04-25T23:17:34.509Z,10.60
2023-04-25T23:20:01.680Z,6.70
2023-04-25T23:22:28.679Z,8.20
2023-04-25T23:24:56.109Z,7.70
2023-04-25T23:27:23.098Z,8.40
2023-04-25T23:29:57.571Z,6.80
2023-04-25T23:32:26.421Z,7.00
2023-04-25T23:34:53.691Z,7.90
2023-04-25T23:37:20.742Z,9.40
2023-04-25T23:39:50.253Z,7.90
2023-04-25T23:42:18.341Z,8.00
2023-04-25T23:44:45.475Z,6.60
2023-04-25T23:47:14.341Z,7.90
2023-04-25T23:49:41.727Z,8.20
2023-04-25T23:52:08.717Z,6.70
2023-04-25T23:54:35.909Z,6.80
2023-04-25T23:57:04.693Z,7.90
2023-04-25T23:59:32.162Z,7.00
